Time;durP1;ratioP1;P1;durP2;ratioP2;P2;SDS_P1;SDS_P2;PMS_P1;PMS_P2;Temp;Humidity;BMP_temperature;BMP_pressure;BME280_temperature;BME280_humidity;BME280_pressure;Samples;Min_cycle;Max_cycle;Signal;HPM_P1;HPM_P2
2021/08/21 00:00:43;;;;;;;10.68;7.30;;;14.30;99.90;;;;;;4916560;29;20042;-57
2021/08/21 00:03:09;;;;;;;10.93;7.28;;;14.30;99.90;;;;;;4907841;29;20036;-57
2021/08/21 00:05:35;;;;;;;11.75;7.55;;;14.30;99.90;;;;;;4915469;29;20028;-59
2021/08/21 00:08:01;;;;;;;12.05;7.97;;;14.30;99.90;;;;;;4916215;29;20035;-56
2021/08/21 00:10:28;;;;;;;13.77;6.85;;;14.30;99.90;;;;;;4915128;29;20047;-57
2021/08/21 00:12:54;;;;;;;12.48;7.72;;;14.30;99.90;;;;;;4918125;29;20032;-57
2021/08/21 00:15:20;;;;;;;10.10;8.07;;;14.30;99.90;;;;;;4915001;29;20034;-58
2021/08/21 00:17:47;;;;;;;10.48;7.57;;;14.20;99.90;;;;;;4915430;29;20032;-58
2021/08/21 00:20:13;;;;;;;14.32;7.82;;;14.30;99.90;;;;;;4921054;29;20172;-54
2021/08/21 00:22:39;;;;;;;10.23;7.05;;;14.30;99.90;;;;;;4924391;29;20079;-54
2021/08/21 00:25:06;;;;;;;11.68;7.93;;;14.30;99.90;;;;;;4920574;29;20028;-56
2021/08/21 00:27:32;;;;;;;11.45;7.53;;;14.20;99.90;;;;;;4920063;29;20278;-55
2021/08/21 00:29:58;;;;;;;11.43;7.95;;;14.30;99.90;;;;;;4915595;29;20503;-56
2021/08/21 00:32:23;;;;;;;10.48;7.70;;;14.20;99.90;;;;;;4915974;29;20032;-56
2021/08/21 00:34:49;;;;;;;8.40;7.35;;;14.20;99.90;;;;;;4915741;29;20035;-57
2021/08/21 00:37:15;;;;;;;8.60;6.75;;;14.20;99.90;;;;;;4914685;29;20036;-56
2021/08/21 00:39:40;;;;;;;10.82;7.20;;;14.10;99.90;;;;;;4913161;29;20080;-55
2021/08/21 00:42:07;;;;;;;11.25;8.30;;;14.10;99.90;;;;;;4914863;29;20035;-57
2021/08/21 00:44:33;;;;;;;13.80;9.45;;;14.00;99.90;;;;;;4917301;29;20036;-62
2021/08/21 00:47:08;;;;;;;13.15;8.40;;;14.00;99.90;;;;;;4916132;29;20027;-58
2021/08/21 00:49:35;;;;;;;11.90;8.88;;;13.90;99.90;;;;;;4913188;29;20028;-58
2021/08/21 00:52:03;;;;;;;11.48;8.27;;;13.90;99.90;;;;;;4921896;29;20082;-59
2021/08/21 00:54:28;;;;;;;12.07;9.38;;;13.80;99.90;;;;;;4923239;29;20024;-57
2021/08/21 00:56:56;;;;;;;12.35;9.38;;;13.80;99.90;;;;;;4921547;29;20103;-55
2021/08/21 00:59:22;;;;;;;15.15;8.77;;;13.80;99.90;;;;;;4914561;29;20055;-50
2021/08/21 01:01:48;;;;;;;14.68;8.82;;;13.80;99.90;;;;;;4914257;29;20452;-57
2021/08/21 01:04:14;;;;;;;20.42;9.43;;;13.80;99.90;;;;;;4913968;29;20036;-56
2021/08/21 01:06:40;;;;;;;13.90;9.60;;;13.80;99.90;;;;;;4915349;29;20073;-59
2021/08/21 01:09:06;;;;;;;18.63;10.23;;;13.80;99.90;;;;;;4917669;29;20040;-54
2021/08/21 01:11:32;;;;;;;14.63;8.60;;;13.80;99.90;;;;;;4913980;29;20035;-55
2021/08/21 01:13:59;;;;;;;15.80;9.13;;;13.80;99.90;;;;;;4920520;29;20042;-58
2021/08/21 01:16:25;;;;;;;13.57;8.77;;;13.80;99.90;;;;;;4925394;29;20028;-53
2021/08/21 01:18:50;;;;;;;14.90;9.60;;;13.70;99.90;;;;;;4919799;29;20031;-58
2021/08/21 01:21:16;;;;;;;12.07;9.18;;;13.70;99.90;;;;;;4914797;29;20032;-57
2021/08/21 01:23:42;;;;;;;12.27;8.95;;;13.70;99.90;;;;;;4916132;29;20042;-55
2021/08/21 01:26:11;;;;;;;13.95;9.55;;;13.70;99.90;;;;;;4917348;29;20080;-57
2021/08/21 01:28:37;;;;;;;17.08;9.63;;;13.70;99.90;;;;;;4909223;29;20419;-58
2021/08/21 01:31:07;;;;;;;14.82;9.77;;;13.70;99.90;;;;;;4914114;29;20034;-57
2021/08/21 01:33:34;;;;;;;15.77;10.23;;;13.60;99.90;;;;;;4921946;29;20455;-56
2021/08/21 01:36:00;;;;;;;18.25;9.93;;;13.60;99.90;;;;;;4915166;29;20040;-59
2021/08/21 01:38:26;;;;;;;21.30;10.13;;;13.60;99.90;;;;;;4912105;29;20025;-58
2021/08/21 01:40:52;;;;;;;12.38;10.32;;;13.60;99.90;;;;;;4912282;29;20028;-59
2021/08/21 01:43:20;;;;;;;17.85;10.65;;;13.60;99.90;;;;;;4917153;29;20052;-59
2021/08/21 01:45:47;;;;;;;17.73;10.65;;;13.60;99.90;;;;;;4913375;29;20028;-57
2021/08/21 01:48:13;;;;;;;16.95;10.23;;;13.60;99.90;;;;;;4911955;29;20694;-56
2021/08/21 01:50:39;;;;;;;20.45;10.07;;;13.60;99.90;;;;;;4922171;29;20028;-57
2021/08/21 01:53:10;;;;;;;14.40;10.45;;;13.50;99.90;;;;;;4919303;29;20122;-57
2021/08/21 01:55:35;;;;;;;15.50;11.10;;;13.50;99.90;;;;;;4925760;29;20067;-55
2021/08/21 01:58:01;;;;;;;18.13;11.70;;;13.50;99.90;;;;;;4909169;29;20032;-58
2021/08/21 02:00:29;;;;;;;19.00;11.73;;;13.50;99.90;;;;;;4910350;29;20538;-58
2021/08/21 02:02:56;;;;;;;14.98;9.73;;;13.50;99.90;;;;;;4909603;29;20091;-56
2021/08/21 02:05:22;;;;;;;14.88;10.60;;;13.50;99.90;;;;;;4912518;29;20524;-58
2021/08/21 02:07:49;;;;;;;22.02;11.27;;;13.40;99.90;;;;;;4912770;29;20036;-55
2021/08/21 02:10:17;;;;;;;14.40;10.23;;;13.40;99.90;;;;;;4916717;29;20024;-56
2021/08/21 02:12:42;;;;;;;17.92;10.85;;;13.40;99.90;;;;;;4913513;29;20024;-58
2021/08/21 02:15:12;;;;;;;13.20;9.65;;;13.40;99.90;;;;;;4913762;29;20072;-55
2021/08/21 02:17:38;;;;;;;15.07;9.30;;;13.40;99.90;;;;;;4919619;29;20032;-58
2021/08/21 02:20:11;;;;;;;14.40;9.38;;;13.50;99.90;;;;;;4923159;29;20084;-59
2021/08/21 02:22:40;;;;;;;13.90;9.32;;;13.50;99.90;;;;;;4920264;29;20725;-57
2021/08/21 02:25:07;;;;;;;13.10;9.25;;;13.60;99.90;;;;;;4923708;29;20036;-57
2021/08/21 02:27:42;;;;;;;14.35;10.02;;;13.50;99.90;;;;;;4916326;29;20024;-57
2021/08/21 02:30:08;;;;;;;12.85;9.32;;;13.50;99.90;;;;;;4915327;29;20059;-59
2021/08/21 02:32:34;;;;;;;13.75;10.05;;;13.50;99.90;;;;;;4912267;29;20100;-59
2021/08/21 02:35:00;;;;;;;16.27;9.48;;;13.50;99.90;;;;;;4917230;29;20099;-56
2021/08/21 02:37:26;;;;;;;14.40;10.05;;;13.50;99.90;;;;;;4914207;29;20112;-58
2021/08/21 02:39:53;;;;;;;16.38;9.98;;;13.40;99.90;;;;;;4915733;29;20031;-55
2021/08/21 02:42:19;;;;;;;17.92;10.13;;;13.40;99.90;;;;;;4920366;29;20874;-58
2021/08/21 02:44:45;;;;;;;16.08;10.73;;;13.40;99.90;;;;;;4912021;29;20064;-57
2021/08/21 02:47:11;;;;;;;13.13;10.38;;;13.40;99.90;;;;;;4908355;29;20703;-55
2021/08/21 02:49:37;;;;;;;19.75;10.20;;;13.40;99.90;;;;;;4912659;29;20044;-57
2021/08/21 02:52:03;;;;;;;13.38;9.82;;;13.40;99.90;;;;;;4913337;29;20028;-54
2021/08/21 02:54:29;;;;;;;15.52;9.38;;;13.30;99.90;;;;;;4912940;29;20408;-58
2021/08/21 02:56:54;;;;;;;11.80;9.45;;;13.30;99.90;;;;;;4928507;29;20044;-56
2021/08/21 02:59:20;;;;;;;14.27;10.07;;;13.30;99.90;;;;;;4914742;29;20028;-55
2021/08/21 03:01:45;;;;;;;13.43;9.63;;;13.30;99.90;;;;;;4923710;29;20486;-57
2021/08/21 03:04:12;;;;;;;14.55;10.15;;;13.40;99.90;;;;;;4917519;29;20027;-55
2021/08/21 03:06:38;;;;;;;14.93;9.45;;;13.30;99.90;;;;;;4915119;29;20132;-54
2021/08/21 03:09:04;;;;;;;13.13;8.73;;;13.40;99.90;;;;;;4912705;29;20111;-57
2021/08/21 03:11:30;;;;;;;12.90;8.98;;;13.40;99.90;;;;;;4920337;29;20032;-56
2021/08/21 03:13:56;;;;;;;11.93;9.02;;;13.30;99.90;;;;;;4915784;29;20032;-58
2021/08/21 03:16:21;;;;;;;14.20;9.82;;;13.30;99.90;;;;;;4920828;29;20480;-54
2021/08/21 03:18:47;;;;;;;12.13;9.52;;;13.30;99.90;;;;;;4923905;29;20407;-51
2021/08/21 03:21:14;;;;;;;16.35;10.93;;;13.30;99.90;;;;;;4924986;29;20025;-57
2021/08/21 03:23:40;;;;;;;13.73;10.57;;;13.30;99.90;;;;;;4916743;29;20052;-58
2021/08/21 03:26:06;;;;;;;18.13;10.02;;;13.20;99.90;;;;;;4921020;29;20103;-57
2021/08/21 03:28:32;;;;;;;16.10;10.75;;;13.20;99.90;;;;;;4916912;29;20104;-58
2021/08/21 03:30:58;;;;;;;17.02;10.85;;;13.20;99.90;;;;;;4923033;29;20164;-58
2021/08/21 03:33:23;;;;;;;14.88;11.15;;;13.20;99.90;;;;;;4918872;29;20031;-59
2021/08/21 03:35:49;;;;;;;19.80;12.13;;;13.10;99.90;;;;;;4918304;29;20024;-55
2021/08/21 03:38:15;;;;;;;15.00;11.73;;;13.20;99.90;;;;;;4925355;29;20028;-56
2021/08/21 03:40:41;;;;;;;21.63;12.02;;;13.10;99.90;;;;;;4914243;29;20078;-57
2021/08/21 03:43:07;;;;;;;14.82;11.13;;;13.20;99.90;;;;;;4918966;29;20036;-56
2021/08/21 03:45:32;;;;;;;14.95;9.77;;;13.20;99.90;;;;;;4914665;29;20400;-57
2021/08/21 03:47:58;;;;;;;16.38;10.90;;;13.10;99.90;;;;;;4913445;29;20036;-55
2021/08/21 03:50:24;;;;;;;16.25;10.98;;;13.10;99.90;;;;;;4916373;29;20031;-54
2021/08/21 03:52:49;;;;;;;18.25;12.40;;;13.10;99.90;;;;;;4919769;29;20119;-58
2021/08/21 03:55:15;;;;;;;18.80;12.38;;;13.00;99.90;;;;;;4915770;29;20044;-58
2021/08/21 03:57:41;;;;;;;20.60;11.57;;;13.10;99.90;;;;;;4917894;29;20032;-57
2021/08/21 04:00:07;;;;;;;18.70;12.63;;;13.10;99.90;;;;;;4921219;29;20043;-58
2021/08/21 04:02:33;;;;;;;18.48;10.95;;;13.10;99.90;;;;;;4918437;29;20060;-57
2021/08/21 04:04:59;;;;;;;13.95;12.20;;;13.10;99.90;;;;;;4924880;29;20067;-56
2021/08/21 04:07:24;;;;;;;13.43;10.13;;;13.10;99.90;;;;;;4920681;29;20435;-54
2021/08/21 04:09:50;;;;;;;16.98;10.70;;;13.10;99.90;;;;;;4920041;29;20096;-56
2021/08/21 04:12:18;;;;;;;14.38;10.15;;;13.20;99.90;;;;;;4919122;29;20036;-58
2021/08/21 04:14:44;;;;;;;17.25;9.85;;;13.20;99.90;;;;;;4914821;29;20436;-54
2021/08/21 04:17:09;;;;;;;15.98;10.05;;;13.20;99.90;;;;;;4915470;29;20056;-55
2021/08/21 04:19:35;;;;;;;13.25;9.18;;;13.20;99.90;;;;;;4914641;29;20076;-55
2021/08/21 04:22:00;;;;;;;13.20;9.77;;;13.30;99.90;;;;;;4919702;29;20464;-56
2021/08/21 04:24:26;;;;;;;12.25;10.10;;;13.30;99.90;;;;;;4925719;29;20038;-54
2021/08/21 04:26:52;;;;;;;13.05;9.52;;;13.30;99.90;;;;;;4924417;29;20032;-56
2021/08/21 04:29:17;;;;;;;19.02;9.20;;;13.40;99.90;;;;;;4916971;29;20443;-58
2021/08/21 04:31:43;;;;;;;12.85;9.68;;;13.40;99.90;;;;;;4914627;29;20078;-54
2021/08/21 04:34:09;;;;;;;11.65;9.35;;;13.40;99.90;;;;;;4911174;29;20039;-58
2021/08/21 04:36:34;;;;;;;15.70;9.35;;;13.40;99.90;;;;;;4914961;29;20040;-58
2021/08/21 04:39:00;;;;;;;10.93;8.93;;;13.50;99.90;;;;;;4920237;29;20039;-57
2021/08/21 04:41:25;;;;;;;11.45;8.82;;;13.50;99.90;;;;;;4912436;29;20028;-58
2021/08/21 04:43:51;;;;;;;15.20;8.95;;;13.60;99.90;;;;;;4920162;29;20515;-55
2021/08/21 04:46:16;;;;;;;10.75;7.80;;;13.60;99.90;;;;;;4922969;29;20032;-57
2021/08/21 04:48:42;;;;;;;12.43;9.13;;;13.60;99.90;;;;;;4919841;29;20024;-57
2021/08/21 04:51:07;;;;;;;11.55;9.80;;;13.60;99.90;;;;;;4918537;29;20028;-56
2021/08/21 04:53:33;;;;;;;11.43;8.10;;;13.70;99.90;;;;;;4926775;29;20028;-53
2021/08/21 04:55:58;;;;;;;11.52;7.70;;;13.80;99.90;;;;;;4918118;29;20072;-58
2021/08/21 04:58:24;;;;;;;10.65;7.82;;;13.80;99.90;;;;;;4919646;29;20111;-54
2021/08/21 05:00:50;;;;;;;10.10;7.65;;;13.80;99.90;;;;;;4914672;29;20036;-54
2021/08/21 05:03:15;;;;;;;10.05;7.05;;;13.90;99.90;;;;;;4923948;29;20031;-55
2021/08/21 05:05:41;;;;;;;13.88;6.80;;;14.00;99.90;;;;;;4923361;29;20040;-55
2021/08/21 05:08:06;;;;;;;9.82;6.88;;;14.00;99.90;;;;;;4917462;29;20035;-58
2021/08/21 05:10:32;;;;;;;17.00;7.43;;;14.00;99.90;;;;;;4923744;29;20058;-56
2021/08/21 05:12:58;;;;;;;9.48;7.03;;;14.10;99.90;;;;;;4919211;29;20032;-54
2021/08/21 05:15:23;;;;;;;8.43;6.70;;;14.20;99.90;;;;;;4918757;29;20028;-56
2021/08/21 05:17:51;;;;;;;8.77;7.32;;;14.20;99.90;;;;;;4917809;29;20528;-56
2021/08/21 05:20:18;;;;;;;9.00;6.63;;;14.30;99.90;;;;;;4914929;29;20032;-58
2021/08/21 05:25:15;;;;;;;9.57;6.32;;;14.50;99.90;;;;;;4925096;29;20443;-57
2021/08/21 05:27:41;;;;;;;12.15;5.80;;;14.60;99.90;;;;;;4924524;29;20036;-59
2021/08/21 05:30:07;;;;;;;10.45;6.18;;;14.70;99.90;;;;;;4925568;29;20038;-53
2021/08/21 05:32:34;;;;;;;6.88;5.85;;;14.80;99.90;;;;;;4906884;29;20036;-57
2021/08/21 05:35:00;;;;;;;7.70;5.45;;;14.90;99.90;;;;;;4923662;29;20031;-58
2021/08/21 05:37:26;;;;;;;6.45;4.78;;;15.10;99.90;;;;;;4920096;29;20043;-60
2021/08/21 05:39:52;;;;;;;8.60;5.03;;;15.40;99.90;;;;;;4912631;29;20028;-58
2021/08/21 05:42:18;;;;;;;7.35;5.00;;;15.80;99.90;;;;;;4913204;29;20500;-56
2021/08/21 05:44:43;;;;;;;8.52;4.30;;;16.10;99.90;;;;;;4912474;29;20039;-57
2021/08/21 05:47:09;;;;;;;5.22;4.30;;;16.20;99.90;;;;;;4913092;29;20055;-55
2021/08/21 05:49:35;;;;;;;4.75;3.75;;;16.60;99.90;;;;;;4913998;29;20031;-56
2021/08/21 05:52:00;;;;;;;5.82;4.50;;;16.70;99.90;;;;;;4922741;29;20036;-57
2021/08/21 05:54:26;;;;;;;9.95;4.20;;;16.60;99.90;;;;;;4922026;29;20032;-56
2021/08/21 05:56:52;;;;;;;12.05;5.13;;;16.70;99.90;;;;;;4917816;29;20043;-55
2021/08/21 05:59:17;;;;;;;5.28;4.22;;;16.80;99.90;;;;;;4916813;29;20071;-58
2021/08/21 06:01:43;;;;;;;10.32;4.28;;;16.90;99.90;;;;;;4916740;29;20035;-57
2021/08/21 06:04:08;;;;;;;6.30;4.30;;;17.10;99.90;;;;;;4926468;29;20024;-58
2021/08/21 06:06:35;;;;;;;5.95;4.25;;;17.30;99.90;;;;;;4918401;29;20103;-54
2021/08/21 06:09:01;;;;;;;5.70;4.40;;;17.50;99.90;;;;;;4915646;29;20063;-59
2021/08/21 06:11:26;;;;;;;9.05;4.18;;;17.50;99.90;;;;;;4917617;29;20062;-57
2021/08/21 06:13:52;;;;;;;5.97;4.03;;;17.80;99.90;;;;;;4922640;29;20036;-55
2021/08/21 06:16:17;;;;;;;4.40;3.38;;;18.00;99.90;;;;;;4922677;29;20032;-59
2021/08/21 06:18:43;;;;;;;13.05;4.25;;;18.30;99.90;;;;;;4914637;29;20056;-58
2021/08/21 06:21:08;;;;;;;7.25;3.80;;;18.50;99.90;;;;;;4913249;29;20035;-55
2021/08/21 06:23:34;;;;;;;6.00;3.75;;;18.20;99.90;;;;;;4913525;29;20039;-56
2021/08/21 06:26:00;;;;;;;5.45;3.28;;;18.60;99.90;;;;;;4915238;29;20032;-59
2021/08/21 06:28:26;;;;;;;6.97;3.38;;;19.10;99.90;;;;;;4911762;29;20036;-59
2021/08/21 06:30:52;;;;;;;6.40;3.58;;;19.50;99.90;;;;;;4914470;29;20035;-55
2021/08/21 06:33:17;;;;;;;4.57;3.10;;;19.40;99.90;;;;;;4921440;29;20044;-58
2021/08/21 06:35:43;;;;;;;6.30;3.72;;;19.40;99.90;;;;;;4923428;29;20389;-60
2021/08/21 06:38:08;;;;;;;5.13;3.40;;;19.30;99.90;;;;;;4920388;29;20028;-60
2021/08/21 06:40:34;;;;;;;5.25;4.00;;;19.30;99.90;;;;;;4914184;29;20036;-56
2021/08/21 06:42:59;;;;;;;5.75;3.92;;;19.10;99.90;;;;;;4916000;29;20078;-60
2021/08/21 06:45:25;;;;;;;5.93;4.05;;;18.70;99.90;;;;;;4914828;29;20032;-60
2021/08/21 06:47:51;;;;;;;11.30;4.18;;;18.80;99.90;;;;;;4913387;29;20508;-58
2021/08/21 06:50:16;;;;;;;4.80;3.75;;;18.80;99.90;;;;;;4918505;29;20041;-58
2021/08/21 06:52:42;;;;;;;6.55;3.92;;;18.80;99.90;;;;;;4921854;29;20028;-59
2021/08/21 06:55:08;;;;;;;5.95;3.30;;;19.00;99.90;;;;;;4924586;29;20028;-56
2021/08/21 06:57:33;;;;;;;5.18;3.83;;;19.00;99.90;;;;;;4918063;29;20036;-52
2021/08/21 06:59:59;;;;;;;6.47;4.13;;;19.00;99.90;;;;;;4899516;29;20043;-55
2021/08/21 07:02:25;;;;;;;6.40;4.00;;;19.20;99.90;;;;;;4910039;29;20032;-58
2021/08/21 07:04:51;;;;;;;6.30;3.85;;;19.70;99.90;;;;;;4906934;29;20516;-57
2021/08/21 07:07:16;;;;;;;8.50;3.38;;;20.60;99.90;;;;;;4908936;29;20071;-64
2021/08/21 07:09:42;;;;;;;4.63;3.35;;;21.90;99.90;;;;;;4906689;29;20035;-57
2021/08/21 07:12:08;;;;;;;8.02;4.18;;;23.20;99.90;;;;;;4904254;29;20036;-57
2021/08/21 07:14:33;;;;;;;6.57;3.70;;;23.90;99.90;;;;;;4903062;29;20168;-59
2021/08/21 07:16:59;;;;;;;4.65;3.33;;;24.50;99.10;;;;;;4903909;29;20040;-59
2021/08/21 07:19:24;;;;;;;5.25;3.35;;;24.70;98.80;;;;;;4910663;29;20043;-58
2021/08/21 07:21:53;;;;;;;7.57;3.25;;;24.50;98.80;;;;;;4916110;29;20032;-61
2021/08/21 07:24:22;;;;;;;4.72;2.80;;;25.30;98.90;;;;;;4921275;29;20091;-59
2021/08/21 07:26:48;;;;;;;6.32;3.13;;;26.10;97.10;;;;;;4915497;29;20056;-54
2021/08/21 07:29:14;;;;;;;6.57;3.33;;;26.40;95.40;;;;;;4914154;29;20047;-60
2021/08/21 07:31:40;;;;;;;3.75;2.78;;;26.30;95.50;;;;;;4915803;29;20484;-60
2021/08/21 07:34:06;;;;;;;4.18;3.08;;;27.00;95.40;;;;;;4917073;29;20051;-60
2021/08/21 07:36:31;;;;;;;5.80;3.30;;;27.90;93.80;;;;;;4919952;29;20067;-60
2021/08/21 07:38:57;;;;;;;5.82;3.55;;;27.90;93.20;;;;;;4918272;29;20063;-57
2021/08/21 07:41:23;;;;;;;6.05;3.67;;;28.70;93.50;;;;;;4912676;29;20028;-59
2021/08/21 07:43:49;;;;;;;4.68;2.95;;;29.10;91.90;;;;;;4921982;29;20059;-59
2021/08/21 07:46:14;;;;;;;10.52;3.35;;;28.80;92.20;;;;;;4913878;29;20111;-61
2021/08/21 07:48:40;;;;;;;8.30;2.85;;;28.70;90.80;;;;;;4910620;29;20086;-60
2021/08/21 07:51:06;;;;;;;7.32;2.67;;;29.10;91.80;;;;;;4918252;29;20024;-61
2021/08/21 07:53:32;;;;;;;3.67;2.83;;;30.40;90.20;;;;;;4917943;29;20039;-60
2021/08/21 07:55:57;;;;;;;3.97;2.80;;;29.80;90.60;;;;;;4913832;29;20391;-59
2021/08/21 07:58:23;;;;;;;5.15;2.80;;;30.00;89.60;;;;;;4912248;29;20028;-60
2021/08/21 08:00:49;;;;;;;5.53;2.92;;;30.40;89.10;;;;;;4897427;29;20543;-59
2021/08/21 08:03:14;;;;;;;4.95;3.10;;;30.20;87.40;;;;;;4912248;29;20040;-60
2021/08/21 08:05:41;;;;;;;6.90;2.63;;;29.80;88.10;;;;;;4915404;29;20098;-60
2021/08/21 08:08:07;;;;;;;4.00;2.42;;;29.90;88.10;;;;;;4915357;29;20025;-58
2021/08/21 08:10:33;;;;;;;11.73;4.75;;;30.70;87.80;;;;;;4915917;29;20032;-61
2021/08/21 08:12:58;;;;;;;6.20;4.45;;;30.40;87.90;;;;;;4916690;29;20042;-59
2021/08/21 08:15:25;;;;;;;7.00;4.28;;;30.50;85.30;;;;;;4919030;29;20032;-59
2021/08/21 08:17:50;;;;;;;5.65;3.83;;;31.30;84.50;;;;;;4918298;29;20024;-58
2021/08/21 08:20:16;;;;;;;6.68;4.18;;;31.10;84.20;;;;;;4915951;29;20092;-58
2021/08/21 08:22:42;;;;;;;8.10;4.80;;;31.60;85.80;;;;;;4915618;29;20020;-61
2021/08/21 08:25:08;;;;;;;4.38;3.97;;;30.90;84.00;;;;;;4915789;29;20031;-59
2021/08/21 08:27:34;;;;;;;10.35;4.28;;;30.40;84.20;;;;;;4915569;29;20032;-58
2021/08/21 08:30:00;;;;;;;5.35;4.10;;;30.30;86.70;;;;;;4916038;29;20040;-60
2021/08/21 08:32:26;;;;;;;8.27;3.97;;;30.40;86.20;;;;;;4916248;29;20033;-60
2021/08/21 08:34:52;;;;;;;6.18;4.28;;;30.90;86.80;;;;;;4916244;29;20032;-59
2021/08/21 08:37:17;;;;;;;5.55;4.05;;;30.90;83.00;;;;;;4915586;29;20032;-58
2021/08/21 08:39:43;;;;;;;7.47;3.35;;;30.70;84.00;;;;;;4915129;29;20107;-60
2021/08/21 08:42:09;;;;;;;5.90;3.40;;;30.40;84.70;;;;;;4931328;23;20048;-61
2021/08/21 08:44:36;;;;;;;5.18;2.85;;;30.30;86.40;;;;;;4911136;29;20137;-60
2021/08/21 08:47:02;;;;;;;5.32;3.15;;;31.70;86.00;;;;;;4916180;29;20028;-59
2021/08/21 08:49:29;;;;;;;8.27;3.42;;;32.10;81.00;;;;;;4904373;29;20408;-60
2021/08/21 08:51:55;;;;;;;5.45;3.55;;;32.10;81.60;;;;;;4899086;29;20095;-59
2021/08/21 08:54:21;;;;;;;5.95;3.00;;;31.30;81.30;;;;;;4915025;29;20031;-59
2021/08/21 08:56:46;;;;;;;3.17;2.28;;;30.80;84.40;;;;;;4916074;29;20072;-60
2021/08/21 08:59:12;;;;;;;3.72;2.03;;;30.40;80.90;;;;;;4913330;29;20102;-59
2021/08/21 09:01:41;;;;;;;4.75;1.85;;;30.40;81.30;;;;;;4899263;28;20040;-59
2021/08/21 09:04:22;;;;;;;3.20;2.25;;;29.70;81.60;;;;;;4915012;29;20028;-60
2021/08/21 09:06:48;;;;;;;3.10;2.00;;;29.50;84.20;;;;;;4915430;29;20040;-60
2021/08/21 09:09:16;;;;;;;2.70;1.48;;;29.70;85.60;;;;;;4912894;29;20151;-58
2021/08/21 09:11:44;;;;;;;2.80;1.77;;;30.50;85.40;;;;;;4912168;29;20112;-60
2021/08/21 09:14:25;;;;;;;2.10;1.58;;;31.40;82.10;;;;;;4915236;29;20032;-59
2021/08/21 09:16:51;;;;;;;3.35;1.60;;;31.70;81.30;;;;;;4910209;29;20060;-61
2021/08/21 09:19:26;;;;;;;3.10;1.80;;;32.00;81.30;;;;;;4914845;29;20060;-61
2021/08/21 09:22:10;;;;;;;4.82;2.05;;;32.40;75.80;;;;;;4914850;29;20016;-59
2021/08/21 09:24:39;;;;;;;1.70;1.58;;;31.60;77.00;;;;;;4915053;29;20077;-60
2021/08/21 09:27:24;;;;;;;4.25;2.00;;;32.00;77.80;;;;;;4914496;29;20095;-59
2021/08/21 09:30:13;;;;;;;2.38;1.60;;;32.10;77.00;;;;;;4914662;29;20028;-61
2021/08/21 09:32:40;;;;;;;4.15;1.88;;;32.40;76.50;;;;;;4913116;29;20036;-61
2021/08/21 09:35:08;;;;;;;2.45;1.67;;;31.90;75.30;;;;;;4913996;29;20746;-61
2021/08/21 09:37:52;;;;;;;3.22;1.58;;;31.70;77.30;;;;;;4915063;29;20483;-60
2021/08/21 09:40:29;;;;;;;3.25;1.55;;;31.40;77.10;;;;;;4914408;29;20035;-61
2021/08/21 09:42:55;;;;;;;1.83;1.23;;;31.70;75.40;;;;;;4915375;29;20032;-61
2021/08/21 09:45:21;;;;;;;3.35;1.67;;;32.10;75.10;;;;;;4914307;29;20485;-61
2021/08/21 09:47:47;;;;;;;1.88;1.27;;;31.80;74.30;;;;;;4914276;29;20064;-60
2021/08/21 09:50:14;;;;;;;4.88;1.70;;;31.10;76.00;;;;;;4914887;29;20067;-61
2021/08/21 09:52:42;;;;;;;3.22;1.38;;;31.10;76.70;;;;;;4914846;29;20026;-61
2021/08/21 09:55:11;;;;;;;3.25;1.58;;;31.00;74.70;;;;;;4914649;29;20055;-61
2021/08/21 09:57:37;;;;;;;2.83;1.42;;;31.10;78.70;;;;;;4913538;29;20032;-59
2021/08/21 10:00:04;;;;;;;1.98;1.50;;;31.20;77.50;;;;;;4914006;29;20067;-61
2021/08/21 10:02:31;;;;;;;3.13;1.73;;;30.80;78.90;;;;;;4890903;29;20424;-60
2021/08/21 10:04:58;;;;;;;3.38;1.38;;;30.80;76.40;;;;;;4895282;29;20039;-61
2021/08/21 10:07:29;;;;;;;2.30;1.63;;;30.70;76.40;;;;;;4899715;29;20032;-59
2021/08/21 10:09:56;;;;;;;2.35;1.63;;;30.40;79.30;;;;;;4913725;29;20036;-60
2021/08/21 10:12:22;;;;;;;2.25;1.80;;;30.20;78.40;;;;;;4914147;29;20025;-59
2021/08/21 10:14:49;;;;;;;2.72;1.67;;;29.80;78.10;;;;;;4914009;29;20104;-60
2021/08/21 10:17:19;;;;;;;5.68;1.70;;;29.60;78.80;;;;;;4914656;29;20443;-60
2021/08/21 10:19:46;;;;;;;3.35;1.77;;;28.80;79.80;;;;;;4913883;29;20032;-60
2021/08/21 10:22:13;;;;;;;5.10;1.70;;;28.70;80.20;;;;;;4914437;29;20032;-60
2021/08/21 10:24:42;;;;;;;2.08;1.48;;;28.80;81.00;;;;;;4913947;29;20032;-59
2021/08/21 10:27:26;;;;;;;1.90;1.40;;;28.60;80.50;;;;;;4909455;29;20033;-59
2021/08/21 10:30:06;;;;;;;1.73;1.55;;;28.70;81.70;;;;;;4913396;29;20059;-59
2021/08/21 10:32:59;;;;;;;3.85;2.03;;;28.60;80.20;;;;;;4914075;29;20040;-58
2021/08/21 10:35:48;;;;;;;2.10;1.60;;;28.50;79.80;;;;;;4913540;29;20028;-59
2021/08/21 10:38:29;;;;;;;1.58;1.17;;;28.60;80.00;;;;;;4912615;29;20021;-57
2021/08/21 10:41:10;;;;;;;1.85;1.48;;;28.50;81.70;;;;;;4913521;29;20024;-55
2021/08/21 10:43:52;;;;;;;2.58;1.65;;;28.30;81.40;;;;;;4913633;29;20597;-59
2021/08/21 10:46:29;;;;;;;2.63;1.52;;;28.50;82.60;;;;;;4895244;29;20032;-59
2021/08/21 10:48:57;;;;;;;5.20;1.52;;;28.60;79.10;;;;;;4913031;29;20055;-60
2021/08/21 10:51:38;;;;;;;3.58;1.70;;;28.60;81.00;;;;;;4913589;29;20511;-59
2021/08/21 10:54:18;;;;;;;3.22;1.70;;;28.50;81.20;;;;;;4913811;29;20039;-59
2021/08/21 10:56:45;;;;;;;2.78;1.90;;;28.50;81.20;;;;;;4913434;29;20032;-59
2021/08/21 10:59:11;;;;;;;2.50;1.83;;;28.40;80.60;;;;;;4913193;29;20029;-57
2021/08/21 11:01:37;;;;;;;5.38;2.00;;;28.20;82.30;;;;;;4898729;29;20075;-59
2021/08/21 11:04:03;;;;;;;2.30;1.58;;;28.40;82.30;;;;;;4913323;29;20051;-60
2021/08/21 11:06:34;;;;;;;2.22;1.80;;;28.40;81.10;;;;;;4913211;29;20087;-57
2021/08/21 11:09:02;;;;;;;3.22;2.13;;;28.50;82.30;;;;;;4913414;29;20024;-60
2021/08/21 11:11:48;;;;;;;2.65;2.00;;;28.20;80.70;;;;;;4913618;29;20498;-61
2021/08/21 11:14:20;;;;;;;2.35;1.90;;;27.60;80.50;;;;;;4914430;29;20079;-60
2021/08/21 11:16:54;;;;;;;2.78;2.08;;;27.70;83.50;;;;;;4913659;29;20060;-61
2021/08/21 11:19:25;;;;;;;4.75;2.00;;;27.80;84.10;;;;;;4913660;29;20028;-55
2021/08/21 11:22:11;;;;;;;7.63;2.10;;;28.00;85.50;;;;;;4914176;29;20099;-57
2021/08/21 11:24:57;;;;;;;2.75;2.10;;;28.10;83.10;;;;;;4914157;29;20040;-58
2021/08/21 11:27:26;;;;;;;2.65;1.85;;;28.00;83.70;;;;;;4904813;29;20040;-57
2021/08/21 11:30:10;;;;;;;2.40;1.90;;;28.10;83.30;;;;;;4913937;29;20119;-59
2021/08/21 11:32:48;;;;;;;4.63;2.08;;;28.00;83.20;;;;;;4911358;29;20036;-59
2021/08/21 11:35:38;;;;;;;3.45;2.08;;;28.00;83.50;;;;;;4914181;29;20032;-58
2021/08/21 11:38:10;;;;;;;3.72;2.00;;;27.80;83.20;;;;;;4912702;29;20036;-58
2021/08/21 11:40:39;;;;;;;2.80;2.10;;;27.90;83.70;;;;;;4916016;29;20046;-57
2021/08/21 11:43:07;;;;;;;7.57;2.10;;;27.60;83.20;;;;;;4910435;29;20107;-59
2021/08/21 11:45:33;;;;;;;2.97;1.90;;;27.60;83.10;;;;;;4917420;29;20512;-60
2021/08/21 11:47:58;;;;;;;6.68;2.10;;;27.60;85.10;;;;;;4916358;29;20452;-58
2021/08/21 11:50:46;;;;;;;2.92;2.10;;;27.50;85.00;;;;;;4917329;29;20028;-58
2021/08/21 11:53:20;;;;;;;5.32;2.15;;;27.80;86.20;;;;;;4916950;29;20065;-60
2021/08/21 11:55:46;;;;;;;3.65;1.80;;;28.10;84.20;;;;;;4917209;29;20396;-60
2021/08/21 11:58:12;;;;;;;5.18;2.22;;;28.20;81.40;;;;;;4916460;29;20031;-60
2021/08/21 12:00:44;;;;;;;6.93;2.30;;;28.10;81.80;;;;;;4917267;29;20036;-53
2021/08/21 12:03:12;;;;;;;2.83;2.20;;;27.70;83.20;;;;;;4911744;29;20072;-59
2021/08/21 12:05:45;;;;;;;3.35;2.22;;;27.60;84.60;;;;;;4917020;29;20111;-60
2021/08/21 12:08:22;;;;;;;7.35;1.77;;;27.50;84.50;;;;;;4916172;29;20032;-57
2021/08/21 12:10:49;;;;;;;3.10;2.17;;;27.50;85.60;;;;;;4916843;29;20496;-59
2021/08/21 12:13:19;;;;;;;4.55;1.95;;;27.60;85.70;;;;;;4916897;29;20032;-57
2021/08/21 12:15:46;;;;;;;4.72;2.65;;;27.40;83.60;;;;;;4917175;29;20545;-59
2021/08/21 12:18:12;;;;;;;4.97;2.10;;;27.50;83.90;;;;;;4916304;29;20032;-60
2021/08/21 12:20:39;;;;;;;3.72;2.53;;;27.50;84.30;;;;;;4917105;29;20125;-55
2021/08/21 12:23:07;;;;;;;3.03;2.20;;;27.60;84.80;;;;;;4916720;29;20043;-59
2021/08/21 12:25:45;;;;;;;4.20;2.00;;;27.40;85.20;;;;;;4916632;29;20083;-59
2021/08/21 12:28:15;;;;;;;3.47;2.17;;;27.40;86.40;;;;;;4915261;29;20036;-60
2021/08/21 12:30:51;;;;;;;3.30;2.20;;;27.40;83.80;;;;;;4916805;29;20163;-57
2021/08/21 12:33:17;;;;;;;4.45;1.90;;;27.30;82.40;;;;;;4913780;29;20028;-59
2021/08/21 12:35:43;;;;;;;7.90;2.45;;;27.30;85.10;;;;;;4916586;29;20036;-58
2021/08/21 12:38:08;;;;;;;9.63;2.72;;;27.20;84.50;;;;;;4915814;29;20066;-59
2021/08/21 12:40:34;;;;;;;2.70;1.83;;;27.10;84.00;;;;;;4915778;29;20028;-55
2021/08/21 12:43:05;;;;;;;6.88;2.45;;;26.90;81.80;;;;;;4916426;29;20071;-59
2021/08/21 12:45:40;;;;;;;2.95;2.00;;;27.10;83.70;;;;;;4916651;29;20431;-58